Terminal Aerodrome Forecast
Issued by NWS Sterling, VA

Home | Current Version | Previous Version | Text Only | Print | Product List | Glossary On
Versions: 1 2 3 4 5 6 7 8 9 10 11 12 13 14 15 16 17 18 19 20 21 22
000
FTUS41 KLWX 250157 AAA
TAFDCA
TAF AMD
KDCA 250157Z 2502/2606 07011KT 3SM -RA BR OVC008
     FM250900 04007KT 4SM BR OVC008
     FM251400 35005KT 4SM BR OVC008
     FM251600 33005KT 4SM BR OVC010
     FM251800 33006KT P6SM BKN010
     FM252300 32009KT P6SM BKN035
     FM260500 31009KT P6SM SCT080=

USA.gov is the U.S. government's official web portal to all federal, state and local government web resources and services.